sensor_id;sensor_type;location;lat;lon;timestamp;P1;durP1;ratioP1;P2;durP2;ratioP2
5730;SDS011;2890;51.950;7.668;2023-06-14T00:00:45;4.57;;;3.83;;
5730;SDS011;2890;51.950;7.668;2023-06-14T00:03:13;5.90;;;4.20;;
5730;SDS011;2890;51.950;7.668;2023-06-14T00:05:42;4.70;;;4.10;;
5730;SDS011;2890;51.950;7.668;2023-06-14T00:08:11;5.47;;;4.00;;
5730;SDS011;2890;51.950;7.668;2023-06-14T00:10:38;4.27;;;3.97;;
5730;SDS011;2890;51.950;7.668;2023-06-14T00:13:06;4.60;;;3.47;;
5730;SDS011;2890;51.950;7.668;2023-06-14T00:15:33;4.00;;;3.70;;
5730;SDS011;2890;51.950;7.668;2023-06-14T00:18:01;4.63;;;4.33;;
5730;SDS011;2890;51.950;7.668;2023-06-14T00:20:28;21.77;;;4.30;;
5730;SDS011;2890;51.950;7.668;2023-06-14T00:22:55;23.57;;;3.90;;
5730;SDS011;2890;51.950;7.668;2023-06-14T00:25:22;4.30;;;4.00;;
5730;SDS011;2890;51.950;7.668;2023-06-14T00:27:50;4.33;;;3.80;;
5730;SDS011;2890;51.950;7.668;2023-06-14T00:30:17;4.20;;;3.77;;
5730;SDS011;2890;51.950;7.668;2023-06-14T00:32:43;5.93;;;3.80;;
5730;SDS011;2890;51.950;7.668;2023-06-14T00:35:11;4.37;;;3.80;;
5730;SDS011;2890;51.950;7.668;2023-06-14T00:37:38;4.00;;;3.60;;
5730;SDS011;2890;51.950;7.668;2023-06-14T00:40:05;3.80;;;3.50;;
5730;SDS011;2890;51.950;7.668;2023-06-14T00:42:33;4.17;;;3.77;;
5730;SDS011;2890;51.950;7.668;2023-06-14T00:44:59;3.90;;;3.60;;
5730;SDS011;2890;51.950;7.668;2023-06-14T00:47:26;4.07;;;3.30;;
5730;SDS011;2890;51.950;7.668;2023-06-14T00:49:53;6.20;;;3.63;;
5730;SDS011;2890;51.950;7.668;2023-06-14T00:52:21;6.17;;;3.67;;
5730;SDS011;2890;51.950;7.668;2023-06-14T00:54:49;5.83;;;3.40;;
5730;SDS011;2890;51.950;7.668;2023-06-14T00:57:15;3.80;;;3.50;;
5730;SDS011;2890;51.950;7.668;2023-06-14T00:59:43;4.53;;;3.87;;
5730;SDS011;2890;51.950;7.668;2023-06-14T01:02:10;4.70;;;4.33;;
5730;SDS011;2890;51.950;7.668;2023-06-14T01:04:37;5.57;;;3.57;;
5730;SDS011;2890;51.950;7.668;2023-06-14T01:07:07;4.27;;;3.17;;
5730;SDS011;2890;51.950;7.668;2023-06-14T01:09:43;4.23;;;3.83;;
5730;SDS011;2890;51.950;7.668;2023-06-14T01:12:15;8.43;;;3.17;;
5730;SDS011;2890;51.950;7.668;2023-06-14T01:14:45;4.30;;;3.50;;
5730;SDS011;2890;51.950;7.668;2023-06-14T01:17:13;5.23;;;3.87;;
5730;SDS011;2890;51.950;7.668;2023-06-14T01:19:41;5.87;;;3.47;;
5730;SDS011;2890;51.950;7.668;2023-06-14T01:22:09;4.73;;;3.50;;
5730;SDS011;2890;51.950;7.668;2023-06-14T01:24:37;5.20;;;3.30;;
5730;SDS011;2890;51.950;7.668;2023-06-14T01:27:04;4.80;;;3.57;;
5730;SDS011;2890;51.950;7.668;2023-06-14T01:29:32;4.20;;;3.50;;
5730;SDS011;2890;51.950;7.668;2023-06-14T01:32:01;4.30;;;3.53;;
5730;SDS011;2890;51.950;7.668;2023-06-14T01:34:28;7.90;;;3.87;;
5730;SDS011;2890;51.950;7.668;2023-06-14T01:36:54;3.67;;;3.37;;
5730;SDS011;2890;51.950;7.668;2023-06-14T01:39:21;3.83;;;3.07;;
5730;SDS011;2890;51.950;7.668;2023-06-14T01:45:12;4.07;;;3.30;;
5730;SDS011;2890;51.950;7.668;2023-06-14T01:47:38;6.23;;;3.23;;
5730;SDS011;2890;51.950;7.668;2023-06-14T01:50:06;3.43;;;3.13;;
5730;SDS011;2890;51.950;7.668;2023-06-14T01:52:33;3.70;;;3.40;;
5730;SDS011;2890;51.950;7.668;2023-06-14T01:54:59;3.93;;;3.53;;
5730;SDS011;2890;51.950;7.668;2023-06-14T01:57:28;3.67;;;3.30;;
5730;SDS011;2890;51.950;7.668;2023-06-14T01:59:54;4.57;;;3.20;;
5730;SDS011;2890;51.950;7.668;2023-06-14T02:02:22;3.50;;;3.20;;
5730;SDS011;2890;51.950;7.668;2023-06-14T02:04:49;4.67;;;3.57;;
5730;SDS011;2890;51.950;7.668;2023-06-14T02:07:15;5.30;;;3.83;;
5730;SDS011;2890;51.950;7.668;2023-06-14T02:09:42;4.90;;;3.27;;
5730;SDS011;2890;51.950;7.668;2023-06-14T02:12:08;4.30;;;3.60;;
5730;SDS011;2890;51.950;7.668;2023-06-14T02:14:36;4.80;;;3.53;;
5730;SDS011;2890;51.950;7.668;2023-06-14T02:17:03;4.80;;;3.83;;
5730;SDS011;2890;51.950;7.668;2023-06-14T02:19:32;3.50;;;3.20;;
5730;SDS011;2890;51.950;7.668;2023-06-14T02:21:59;4.73;;;3.30;;
5730;SDS011;2890;51.950;7.668;2023-06-14T02:24:26;7.37;;;3.60;;
5730;SDS011;2890;51.950;7.668;2023-06-14T02:26:52;4.10;;;3.70;;
5730;SDS011;2890;51.950;7.668;2023-06-14T02:29:19;3.90;;;2.90;;
5730;SDS011;2890;51.950;7.668;2023-06-14T02:31:46;5.33;;;3.40;;
5730;SDS011;2890;51.950;7.668;2023-06-14T02:34:13;4.37;;;3.50;;
5730;SDS011;2890;51.950;7.668;2023-06-14T02:36:43;4.40;;;3.27;;
5730;SDS011;2890;51.950;7.668;2023-06-14T02:39:09;3.30;;;3.00;;
5730;SDS011;2890;51.950;7.668;2023-06-14T02:41:36;3.80;;;3.50;;
5730;SDS011;2890;51.950;7.668;2023-06-14T02:44:03;5.73;;;3.57;;
5730;SDS011;2890;51.950;7.668;2023-06-14T02:46:29;6.83;;;3.80;;
5730;SDS011;2890;51.950;7.668;2023-06-14T02:48:56;6.03;;;3.53;;
5730;SDS011;2890;51.950;7.668;2023-06-14T02:51:22;6.37;;;3.70;;
5730;SDS011;2890;51.950;7.668;2023-06-14T02:53:50;3.90;;;3.60;;
5730;SDS011;2890;51.950;7.668;2023-06-14T02:56:17;4.90;;;4.00;;
5730;SDS011;2890;51.950;7.668;2023-06-14T02:58:44;4.20;;;3.80;;
5730;SDS011;2890;51.950;7.668;2023-06-14T03:01:11;7.30;;;3.80;;
5730;SDS011;2890;51.950;7.668;2023-06-14T03:03:39;4.57;;;3.80;;
5730;SDS011;2890;51.950;7.668;2023-06-14T03:06:05;8.17;;;3.67;;
5730;SDS011;2890;51.950;7.668;2023-06-14T03:08:33;8.23;;;3.50;;
5730;SDS011;2890;51.950;7.668;2023-06-14T03:11:04;6.40;;;3.27;;
5730;SDS011;2890;51.950;7.668;2023-06-14T03:13:31;3.80;;;3.50;;
5730;SDS011;2890;51.950;7.668;2023-06-14T03:15:58;5.67;;;3.47;;
5730;SDS011;2890;51.950;7.668;2023-06-14T03:18:27;8.10;;;3.63;;
5730;SDS011;2890;51.950;7.668;2023-06-14T03:20:54;17.53;;;3.90;;
5730;SDS011;2890;51.950;7.668;2023-06-14T03:23:21;5.10;;;4.00;;
5730;SDS011;2890;51.950;7.668;2023-06-14T03:25:48;6.83;;;4.30;;
5730;SDS011;2890;51.950;7.668;2023-06-14T03:28:16;4.17;;;3.77;;
5730;SDS011;2890;51.950;7.668;2023-06-14T03:30:43;8.07;;;3.70;;
5730;SDS011;2890;51.950;7.668;2023-06-14T03:33:09;11.07;;;3.80;;
5730;SDS011;2890;51.950;7.668;2023-06-14T03:35:36;7.40;;;3.80;;
5730;SDS011;2890;51.950;7.668;2023-06-14T03:38:03;6.20;;;3.87;;
5730;SDS011;2890;51.950;7.668;2023-06-14T03:40:29;3.47;;;3.17;;
5730;SDS011;2890;51.950;7.668;2023-06-14T03:42:56;3.80;;;3.43;;
5730;SDS011;2890;51.950;7.668;2023-06-14T03:45:24;6.50;;;3.30;;
5730;SDS011;2890;51.950;7.668;2023-06-14T03:47:50;3.90;;;3.50;;
5730;SDS011;2890;51.950;7.668;2023-06-14T03:50:17;4.90;;;3.27;;
5730;SDS011;2890;51.950;7.668;2023-06-14T03:52:44;5.83;;;3.60;;
5730;SDS011;2890;51.950;7.668;2023-06-14T03:55:11;4.60;;;3.00;;
5730;SDS011;2890;51.950;7.668;2023-06-14T03:57:39;6.10;;;3.20;;
5730;SDS011;2890;51.950;7.668;2023-06-14T04:00:06;4.23;;;3.83;;
5730;SDS011;2890;51.950;7.668;2023-06-14T04:02:35;7.03;;;4.10;;
5730;SDS011;2890;51.950;7.668;2023-06-14T04:05:02;14.37;;;3.77;;
5730;SDS011;2890;51.950;7.668;2023-06-14T04:07:30;4.00;;;3.70;;
5730;SDS011;2890;51.950;7.668;2023-06-14T04:09:56;4.93;;;3.30;;
5730;SDS011;2890;51.950;7.668;2023-06-14T04:12:23;7.97;;;3.47;;
5730;SDS011;2890;51.950;7.668;2023-06-14T04:14:49;4.50;;;3.47;;
5730;SDS011;2890;51.950;7.668;2023-06-14T04:17:16;9.00;;;4.00;;
5730;SDS011;2890;51.950;7.668;2023-06-14T04:19:44;6.17;;;3.87;;
5730;SDS011;2890;51.950;7.668;2023-06-14T04:22:10;3.70;;;3.20;;
5730;SDS011;2890;51.950;7.668;2023-06-14T04:24:37;5.90;;;3.73;;
5730;SDS011;2890;51.950;7.668;2023-06-14T04:27:03;4.20;;;3.80;;
5730;SDS011;2890;51.950;7.668;2023-06-14T04:29:31;4.20;;;3.80;;
5730;SDS011;2890;51.950;7.668;2023-06-14T04:31:58;4.10;;;3.73;;
5730;SDS011;2890;51.950;7.668;2023-06-14T04:34:26;6.77;;;3.30;;
5730;SDS011;2890;51.950;7.668;2023-06-14T04:36:56;7.13;;;3.30;;
5730;SDS011;2890;51.950;7.668;2023-06-14T04:39:24;5.57;;;3.87;;
5730;SDS011;2890;51.950;7.668;2023-06-14T04:41:52;5.77;;;3.60;;
5730;SDS011;2890;51.950;7.668;2023-06-14T04:44:21;4.73;;;3.80;;
5730;SDS011;2890;51.950;7.668;2023-06-14T04:46:49;3.80;;;3.50;;
5730;SDS011;2890;51.950;7.668;2023-06-14T04:49:16;6.30;;;3.70;;
5730;SDS011;2890;51.950;7.668;2023-06-14T04:51:43;5.30;;;3.83;;
5730;SDS011;2890;51.950;7.668;2023-06-14T04:54:13;4.83;;;3.70;;
5730;SDS011;2890;51.950;7.668;2023-06-14T04:56:40;4.23;;;3.83;;
5730;SDS011;2890;51.950;7.668;2023-06-14T04:59:07;3.80;;;3.40;;
5730;SDS011;2890;51.950;7.668;2023-06-14T05:01:34;4.00;;;3.70;;
5730;SDS011;2890;51.950;7.668;2023-06-14T05:04:00;4.30;;;3.43;;
5730;SDS011;2890;51.950;7.668;2023-06-14T05:06:28;4.77;;;3.77;;
5730;SDS011;2890;51.950;7.668;2023-06-14T05:08:55;3.73;;;3.43;;
5730;SDS011;2890;51.950;7.668;2023-06-14T05:11:23;3.87;;;3.50;;
5730;SDS011;2890;51.950;7.668;2023-06-14T05:13:52;4.30;;;3.40;;
5730;SDS011;2890;51.950;7.668;2023-06-14T05:16:18;4.87;;;3.10;;
5730;SDS011;2890;51.950;7.668;2023-06-14T05:18:45;6.00;;;3.17;;
5730;SDS011;2890;51.950;7.668;2023-06-14T05:21:12;4.33;;;3.70;;
5730;SDS011;2890;51.950;7.668;2023-06-14T05:23:42;3.73;;;3.43;;
5730;SDS011;2890;51.950;7.668;2023-06-14T05:26:09;3.30;;;3.00;;
5730;SDS011;2890;51.950;7.668;2023-06-14T05:28:37;6.57;;;3.40;;
5730;SDS011;2890;51.950;7.668;2023-06-14T05:31:04;4.83;;;3.33;;
5730;SDS011;2890;51.950;7.668;2023-06-14T05:33:30;6.70;;;3.37;;
5730;SDS011;2890;51.950;7.668;2023-06-14T05:35:56;3.60;;;3.30;;
5730;SDS011;2890;51.950;7.668;2023-06-14T05:38:23;3.50;;;2.90;;
5730;SDS011;2890;51.950;7.668;2023-06-14T05:40:50;4.00;;;3.07;;
5730;SDS011;2890;51.950;7.668;2023-06-14T05:43:17;5.20;;;3.03;;
5730;SDS011;2890;51.950;7.668;2023-06-14T05:45:44;3.17;;;2.90;;
5730;SDS011;2890;51.950;7.668;2023-06-14T05:48:11;3.47;;;3.07;;
5730;SDS011;2890;51.950;7.668;2023-06-14T05:50:37;3.20;;;2.73;;
5730;SDS011;2890;51.950;7.668;2023-06-14T05:53:04;4.10;;;3.10;;
5730;SDS011;2890;51.950;7.668;2023-06-14T05:55:30;4.23;;;2.93;;
5730;SDS011;2890;51.950;7.668;2023-06-14T05:57:57;3.53;;;3.23;;
5730;SDS011;2890;51.950;7.668;2023-06-14T06:00:23;3.40;;;3.20;;
5730;SDS011;2890;51.950;7.668;2023-06-14T06:02:51;2.90;;;2.70;;
5730;SDS011;2890;51.950;7.668;2023-06-14T06:05:18;5.50;;;2.73;;
5730;SDS011;2890;51.950;7.668;2023-06-14T06:07:44;2.90;;;2.60;;
5730;SDS011;2890;51.950;7.668;2023-06-14T06:10:11;11.83;;;3.13;;
5730;SDS011;2890;51.950;7.668;2023-06-14T06:12:37;4.20;;;2.90;;
5730;SDS011;2890;51.950;7.668;2023-06-14T06:15:04;4.30;;;2.70;;
5730;SDS011;2890;51.950;7.668;2023-06-14T06:17:32;5.80;;;2.73;;
5730;SDS011;2890;51.950;7.668;2023-06-14T06:20:00;2.63;;;2.43;;
5730;SDS011;2890;51.950;7.668;2023-06-14T06:22:27;4.77;;;2.37;;
5730;SDS011;2890;51.950;7.668;2023-06-14T06:24:53;4.30;;;2.53;;
5730;SDS011;2890;51.950;7.668;2023-06-14T06:27:20;2.90;;;2.40;;
5730;SDS011;2890;51.950;7.668;2023-06-14T06:29:46;4.17;;;2.80;;
5730;SDS011;2890;51.950;7.668;2023-06-14T06:32:13;4.00;;;2.50;;
5730;SDS011;2890;51.950;7.668;2023-06-14T06:34:40;4.27;;;3.00;;
5730;SDS011;2890;51.950;7.668;2023-06-14T06:37:08;3.77;;;2.30;;
5730;SDS011;2890;51.950;7.668;2023-06-14T06:39:34;4.27;;;2.80;;
5730;SDS011;2890;51.950;7.668;2023-06-14T06:42:01;2.60;;;2.40;;
5730;SDS011;2890;51.950;7.668;2023-06-14T06:44:27;4.10;;;2.40;;
5730;SDS011;2890;51.950;7.668;2023-06-14T06:46:54;2.90;;;2.30;;
5730;SDS011;2890;51.950;7.668;2023-06-14T06:49:20;3.93;;;2.50;;
5730;SDS011;2890;51.950;7.668;2023-06-14T06:51:58;2.60;;;2.40;;
5730;SDS011;2890;51.950;7.668;2023-06-14T06:54:27;2.63;;;2.43;;
5730;SDS011;2890;51.950;7.668;2023-06-14T06:56:53;2.57;;;2.37;;
5730;SDS011;2890;51.950;7.668;2023-06-14T06:59:20;3.07;;;2.40;;
5730;SDS011;2890;51.950;7.668;2023-06-14T07:01:47;4.53;;;2.20;;
5730;SDS011;2890;51.950;7.668;2023-06-14T07:04:13;2.97;;;2.00;;
5730;SDS011;2890;51.950;7.668;2023-06-14T07:06:41;5.20;;;2.17;;
5730;SDS011;2890;51.950;7.668;2023-06-14T07:09:08;2.33;;;2.13;;
5730;SDS011;2890;51.950;7.668;2023-06-14T07:11:39;2.23;;;1.73;;
5730;SDS011;2890;51.950;7.668;2023-06-14T07:14:05;3.60;;;2.53;;
5730;SDS011;2890;51.950;7.668;2023-06-14T07:16:32;3.20;;;2.07;;
5730;SDS011;2890;51.950;7.668;2023-06-14T07:18:58;2.57;;;2.37;;
5730;SDS011;2890;51.950;7.668;2023-06-14T07:21:25;2.50;;;2.30;;
5730;SDS011;2890;51.950;7.668;2023-06-14T07:23:52;2.37;;;2.17;;
5730;SDS011;2890;51.950;7.668;2023-06-14T07:26:19;2.10;;;1.90;;
5730;SDS011;2890;51.950;7.668;2023-06-14T07:28:47;1.93;;;1.83;;
5730;SDS011;2890;51.950;7.668;2023-06-14T07:31:13;6.30;;;2.03;;
5730;SDS011;2890;51.950;7.668;2023-06-14T07:33:40;4.57;;;2.00;;
5730;SDS011;2890;51.950;7.668;2023-06-14T07:36:07;2.33;;;1.77;;
5730;SDS011;2890;51.950;7.668;2023-06-14T07:38:33;2.10;;;1.90;;
5730;SDS011;2890;51.950;7.668;2023-06-14T07:41:01;2.33;;;2.00;;
5730;SDS011;2890;51.950;7.668;2023-06-14T07:43:28;1.77;;;1.60;;
5730;SDS011;2890;51.950;7.668;2023-06-14T07:45:56;2.67;;;1.90;;
5730;SDS011;2890;51.950;7.668;2023-06-14T07:48:23;3.67;;;2.07;;
5730;SDS011;2890;51.950;7.668;2023-06-14T07:50:49;1.93;;;1.67;;
5730;SDS011;2890;51.950;7.668;2023-06-14T07:53:16;3.03;;;2.10;;
5730;SDS011;2890;51.950;7.668;2023-06-14T07:55:42;2.07;;;1.63;;
5730;SDS011;2890;51.950;7.668;2023-06-14T07:58:09;2.07;;;1.87;;
5730;SDS011;2890;51.950;7.668;2023-06-14T08:00:36;2.30;;;2.10;;
5730;SDS011;2890;51.950;7.668;2023-06-14T08:03:04;2.43;;;1.70;;
5730;SDS011;2890;51.950;7.668;2023-06-14T08:05:30;3.83;;;2.10;;
5730;SDS011;2890;51.950;7.668;2023-06-14T08:07:57;3.00;;;1.83;;
5730;SDS011;2890;51.950;7.668;2023-06-14T08:10:24;2.23;;;2.03;;
5730;SDS011;2890;51.950;7.668;2023-06-14T08:12:51;2.30;;;2.10;;
5730;SDS011;2890;51.950;7.668;2023-06-14T08:15:17;2.00;;;1.80;;
5730;SDS011;2890;51.950;7.668;2023-06-14T08:17:44;1.70;;;1.60;;
5730;SDS011;2890;51.950;7.668;2023-06-14T08:20:12;3.50;;;2.03;;
5730;SDS011;2890;51.950;7.668;2023-06-14T08:22:40;2.20;;;1.90;;
5730;SDS011;2890;51.950;7.668;2023-06-14T08:25:07;1.77;;;1.40;;
5730;SDS011;2890;51.950;7.668;2023-06-14T08:27:35;1.90;;;1.70;;
5730;SDS011;2890;51.950;7.668;2023-06-14T08:30:02;2.00;;;1.50;;
5730;SDS011;2890;51.950;7.668;2023-06-14T08:32:28;4.70;;;1.53;;
5730;SDS011;2890;51.950;7.668;2023-06-14T08:34:55;3.30;;;1.50;;
5730;SDS011;2890;51.950;7.668;2023-06-14T08:37:23;2.30;;;1.53;;
5730;SDS011;2890;51.950;7.668;2023-06-14T08:39:50;2.97;;;1.87;;
5730;SDS011;2890;51.950;7.668;2023-06-14T08:42:16;5.23;;;2.00;;
5730;SDS011;2890;51.950;7.668;2023-06-14T08:44:45;1.80;;;1.40;;
5730;SDS011;2890;51.950;7.668;2023-06-14T08:47:11;3.10;;;1.53;;
5730;SDS011;2890;51.950;7.668;2023-06-14T08:49:38;3.37;;;1.80;;
5730;SDS011;2890;51.950;7.668;2023-06-14T08:52:08;4.83;;;1.53;;
5730;SDS011;2890;51.950;7.668;2023-06-14T08:54:39;2.80;;;1.60;;
5730;SDS011;2890;51.950;7.668;2023-06-14T08:57:09;2.23;;;1.60;;
5730;SDS011;2890;51.950;7.668;2023-06-14T08:59:37;4.43;;;1.40;;
5730;SDS011;2890;51.950;7.668;2023-06-14T09:02:11;2.83;;;1.90;;
5730;SDS011;2890;51.950;7.668;2023-06-14T09:04:39;2.83;;;1.83;;
5730;SDS011;2890;51.950;7.668;2023-06-14T09:07:06;2.63;;;1.50;;
5730;SDS011;2890;51.950;7.668;2023-06-14T09:09:39;3.90;;;1.63;;
5730;SDS011;2890;51.950;7.668;2023-06-14T09:12:07;4.67;;;2.20;;
5730;SDS011;2890;51.950;7.668;2023-06-14T09:14:36;1.90;;;1.47;;
5730;SDS011;2890;51.950;7.668;2023-06-14T09:17:05;2.60;;;2.03;;
5730;SDS011;2890;51.950;7.668;2023-06-14T09:19:32;2.47;;;1.23;;
5730;SDS011;2890;51.950;7.668;2023-06-14T09:21:59;6.93;;;1.73;;
5730;SDS011;2890;51.950;7.668;2023-06-14T09:24:26;2.47;;;1.80;;
5730;SDS011;2890;51.950;7.668;2023-06-14T09:26:54;5.57;;;1.90;;
5730;SDS011;2890;51.950;7.668;2023-06-14T09:29:20;4.27;;;1.83;;
5730;SDS011;2890;51.950;7.668;2023-06-14T09:31:47;3.50;;;2.17;;
5730;SDS011;2890;51.950;7.668;2023-06-14T09:34:13;2.33;;;1.70;;
5730;SDS011;2890;51.950;7.668;2023-06-14T09:36:43;2.77;;;1.90;;
5730;SDS011;2890;51.950;7.668;2023-06-14T09:39:11;5.07;;;1.80;;
5730;SDS011;2890;51.950;7.668;2023-06-14T09:41:43;2.53;;;1.63;;
5730;SDS011;2890;51.950;7.668;2023-06-14T09:44:11;5.87;;;1.83;;
5730;SDS011;2890;51.950;7.668;2023-06-14T09:46:38;2.20;;;1.70;;
5730;SDS011;2890;51.950;7.668;2023-06-14T09:49:04;4.87;;;1.83;;
5730;SDS011;2890;51.950;7.668;2023-06-14T09:51:31;3.00;;;1.87;;
5730;SDS011;2890;51.950;7.668;2023-06-14T09:53:58;1.90;;;1.40;;
5730;SDS011;2890;51.950;7.668;2023-06-14T09:56:26;2.77;;;1.60;;
5730;SDS011;2890;51.950;7.668;2023-06-14T09:58:55;3.23;;;1.93;;
5730;SDS011;2890;51.950;7.668;2023-06-14T10:01:24;4.80;;;1.50;;
5730;SDS011;2890;51.950;7.668;2023-06-14T10:03:52;3.60;;;1.80;;
5730;SDS011;2890;51.950;7.668;2023-06-14T10:06:21;2.10;;;1.90;;
5730;SDS011;2890;51.950;7.668;2023-06-14T10:08:49;2.30;;;2.10;;
5730;SDS011;2890;51.950;7.668;2023-06-14T10:11:17;1.40;;;1.30;;
5730;SDS011;2890;51.950;7.668;2023-06-14T10:13:43;2.70;;;1.40;;
5730;SDS011;2890;51.950;7.668;2023-06-14T10:16:12;2.77;;;1.80;;
5730;SDS011;2890;51.950;7.668;2023-06-14T10:18:45;1.90;;;1.70;;
5730;SDS011;2890;51.950;7.668;2023-06-14T10:21:16;2.33;;;1.53;;
5730;SDS011;2890;51.950;7.668;2023-06-14T10:23:47;1.83;;;1.30;;
5730;SDS011;2890;51.950;7.668;2023-06-14T10:26:21;2.30;;;1.73;;
5730;SDS011;2890;51.950;7.668;2023-06-14T10:28:55;2.90;;;1.90;;
5730;SDS011;2890;51.950;7.668;2023-06-14T10:31:22;1.77;;;1.63;;
5730;SDS011;2890;51.950;7.668;2023-06-14T10:33:55;3.80;;;1.90;;
5730;SDS011;2890;51.950;7.668;2023-06-14T10:36:26;2.80;;;1.90;;
5730;SDS011;2890;51.950;7.668;2023-06-14T10:38:56;3.40;;;1.90;;
5730;SDS011;2890;51.950;7.668;2023-06-14T10:41:24;2.00;;;1.60;;
5730;SDS011;2890;51.950;7.668;2023-06-14T10:43:52;3.97;;;1.70;;
5730;SDS011;2890;51.950;7.668;2023-06-14T10:46:19;1.87;;;1.73;;
5730;SDS011;2890;51.950;7.668;2023-06-14T10:48:48;2.33;;;2.13;;
5730;SDS011;2890;51.950;7.668;2023-06-14T10:51:17;3.40;;;2.03;;
5730;SDS011;2890;51.950;7.668;2023-06-14T10:53:45;2.23;;;2.00;;
5730;SDS011;2890;51.950;7.668;2023-06-14T10:56:22;1.70;;;1.50;;
5730;SDS011;2890;51.950;7.668;2023-06-14T10:58:51;4.80;;;2.27;;
5730;SDS011;2890;51.950;7.668;2023-06-14T11:01:18;1.80;;;1.70;;
5730;SDS011;2890;51.950;7.668;2023-06-14T11:03:55;3.30;;;1.90;;
5730;SDS011;2890;51.950;7.668;2023-06-14T11:06:24;3.73;;;1.80;;
5730;SDS011;2890;51.950;7.668;2023-06-14T11:11:54;2.13;;;1.90;;
5730;SDS011;2890;51.950;7.668;2023-06-14T11:14:22;2.87;;;1.80;;
5730;SDS011;2890;51.950;7.668;2023-06-14T11:16:49;2.00;;;1.80;;
5730;SDS011;2890;51.950;7.668;2023-06-14T11:19:15;5.50;;;2.37;;
5730;SDS011;2890;51.950;7.668;2023-06-14T11:21:46;5.73;;;1.93;;
5730;SDS011;2890;51.950;7.668;2023-06-14T11:24:13;3.87;;;2.10;;
5730;SDS011;2890;51.950;7.668;2023-06-14T11:26:40;2.23;;;2.03;;
5730;SDS011;2890;51.950;7.668;2023-06-14T11:29:06;2.77;;;1.77;;
5730;SDS011;2890;51.950;7.668;2023-06-14T11:31:33;3.23;;;2.10;;
5730;SDS011;2890;51.950;7.668;2023-06-14T11:33:59;2.47;;;1.83;;
5730;SDS011;2890;51.950;7.668;2023-06-14T11:36:26;2.00;;;1.80;;
5730;SDS011;2890;51.950;7.668;2023-06-14T11:38:58;5.23;;;1.53;;
5730;SDS011;2890;51.950;7.668;2023-06-14T11:41:31;2.47;;;2.20;;
5730;SDS011;2890;51.950;7.668;2023-06-14T11:43:59;3.10;;;2.00;;
5730;SDS011;2890;51.950;7.668;2023-06-14T11:46:26;4.53;;;1.90;;
5730;SDS011;2890;51.950;7.668;2023-06-14T11:48:53;2.90;;;2.00;;
5730;SDS011;2890;51.950;7.668;2023-06-14T11:51:19;42.90;;;7.67;;
5730;SDS011;2890;51.950;7.668;2023-06-14T11:53:46;8.63;;;4.10;;
5730;SDS011;2890;51.950;7.668;2023-06-14T11:56:14;5.20;;;2.27;;
5730;SDS011;2890;51.950;7.668;2023-06-14T11:58:42;11.73;;;2.57;;
5730;SDS011;2890;51.950;7.668;2023-06-14T12:01:08;13.93;;;3.30;;
5730;SDS011;2890;51.950;7.668;2023-06-14T12:03:35;2.93;;;2.40;;
5730;SDS011;2890;51.950;7.668;2023-06-14T12:06:04;4.93;;;3.30;;
5730;SDS011;2890;51.950;7.668;2023-06-14T12:08:32;4.83;;;2.20;;
5730;SDS011;2890;51.950;7.668;2023-06-14T12:11:10;13.70;;;2.83;;
5730;SDS011;2890;51.950;7.668;2023-06-14T12:13:40;27.73;;;5.37;;
5730;SDS011;2890;51.950;7.668;2023-06-14T12:16:06;18.40;;;3.03;;
5730;SDS011;2890;51.950;7.668;2023-06-14T12:18:34;3.20;;;2.30;;
5730;SDS011;2890;51.950;7.668;2023-06-14T12:21:02;19.73;;;3.67;;
5730;SDS011;2890;51.950;7.668;2023-06-14T12:23:43;2.13;;;1.97;;
5730;SDS011;2890;51.950;7.668;2023-06-14T12:26:12;3.40;;;2.23;;
5730;SDS011;2890;51.950;7.668;2023-06-14T12:28:41;3.30;;;2.07;;
5730;SDS011;2890;51.950;7.668;2023-06-14T12:31:08;2.47;;;2.27;;
5730;SDS011;2890;51.950;7.668;2023-06-14T12:33:35;2.93;;;2.30;;
5730;SDS011;2890;51.950;7.668;2023-06-14T12:36:03;2.37;;;2.17;;
5730;SDS011;2890;51.950;7.668;2023-06-14T12:38:30;4.47;;;2.50;;
5730;SDS011;2890;51.950;7.668;2023-06-14T12:40:56;3.73;;;2.30;;
5730;SDS011;2890;51.950;7.668;2023-06-14T12:43:23;3.50;;;2.20;;
5730;SDS011;2890;51.950;7.668;2023-06-14T12:45:51;3.90;;;2.40;;
5730;SDS011;2890;51.950;7.668;2023-06-14T12:48:18;3.07;;;2.27;;
5730;SDS011;2890;51.950;7.668;2023-06-14T12:50:45;3.47;;;2.27;;
5730;SDS011;2890;51.950;7.668;2023-06-14T12:53:11;3.13;;;2.03;;
5730;SDS011;2890;51.950;7.668;2023-06-14T12:55:38;2.33;;;2.13;;
5730;SDS011;2890;51.950;7.668;2023-06-14T12:58:04;4.33;;;2.30;;
5730;SDS011;2890;51.950;7.668;2023-06-14T13:00:31;3.17;;;2.10;;
5730;SDS011;2890;51.950;7.668;2023-06-14T13:02:59;2.57;;;2.10;;
5730;SDS011;2890;51.950;7.668;2023-06-14T13:05:26;2.50;;;2.30;;
5730;SDS011;2890;51.950;7.668;2023-06-14T13:07:53;2.43;;;2.23;;
5730;SDS011;2890;51.950;7.668;2023-06-14T13:10:20;2.90;;;2.40;;
5730;SDS011;2890;51.950;7.668;2023-06-14T13:12:46;5.90;;;2.40;;
5730;SDS011;2890;51.950;7.668;2023-06-14T13:15:13;5.27;;;2.33;;
5730;SDS011;2890;51.950;7.668;2023-06-14T13:17:39;2.93;;;2.23;;
5730;SDS011;2890;51.950;7.668;2023-06-14T13:20:08;3.00;;;2.27;;
5730;SDS011;2890;51.950;7.668;2023-06-14T13:22:36;2.33;;;2.13;;
5730;SDS011;2890;51.950;7.668;2023-06-14T13:25:02;2.53;;;2.33;;
5730;SDS011;2890;51.950;7.668;2023-06-14T13:27:29;2.30;;;2.10;;
5730;SDS011;2890;51.950;7.668;2023-06-14T13:29:56;2.83;;;2.43;;
5730;SDS011;2890;51.950;7.668;2023-06-14T13:32:22;2.40;;;2.20;;
5730;SDS011;2890;51.950;7.668;2023-06-14T13:34:49;3.33;;;2.60;;
5730;SDS011;2890;51.950;7.668;2023-06-14T13:37:17;3.50;;;2.17;;
5730;SDS011;2890;51.950;7.668;2023-06-14T13:39:43;2.30;;;2.10;;
5730;SDS011;2890;51.950;7.668;2023-06-14T13:42:10;2.20;;;1.90;;
5730;SDS011;2890;51.950;7.668;2023-06-14T13:44:37;2.90;;;2.70;;
5730;SDS011;2890;51.950;7.668;2023-06-14T13:47:03;2.50;;;2.30;;
5730;SDS011;2890;51.950;7.668;2023-06-14T13:49:30;6.63;;;2.50;;
5730;SDS011;2890;51.950;7.668;2023-06-14T13:51:57;3.30;;;2.27;;
5730;SDS011;2890;51.950;7.668;2023-06-14T13:54:25;3.00;;;2.40;;
5730;SDS011;2890;51.950;7.668;2023-06-14T13:56:52;3.20;;;1.80;;
5730;SDS011;2890;51.950;7.668;2023-06-14T13:59:19;3.33;;;2.53;;
5730;SDS011;2890;51.950;7.668;2023-06-14T14:01:46;3.27;;;2.27;;
5730;SDS011;2890;51.950;7.668;2023-06-14T14:04:13;2.13;;;1.90;;
5730;SDS011;2890;51.950;7.668;2023-06-14T14:06:39;4.40;;;2.33;;
5730;SDS011;2890;51.950;7.668;2023-06-14T14:09:06;2.83;;;2.10;;
5730;SDS011;2890;51.950;7.668;2023-06-14T14:11:35;2.77;;;2.57;;
5730;SDS011;2890;51.950;7.668;2023-06-14T14:14:01;4.10;;;3.30;;
5730;SDS011;2890;51.950;7.668;2023-06-14T14:16:29;3.40;;;2.43;;
5730;SDS011;2890;51.950;7.668;2023-06-14T14:18:56;2.23;;;2.03;;
5730;SDS011;2890;51.950;7.668;2023-06-14T14:21:22;2.53;;;2.33;;
5730;SDS011;2890;51.950;7.668;2023-06-14T14:23:49;2.47;;;2.27;;
5730;SDS011;2890;51.950;7.668;2023-06-14T14:26:16;3.30;;;2.50;;
5730;SDS011;2890;51.950;7.668;2023-06-14T14:28:44;2.60;;;2.40;;
5730;SDS011;2890;51.950;7.668;2023-06-14T14:31:10;3.07;;;2.60;;
5730;SDS011;2890;51.950;7.668;2023-06-14T14:33:37;2.40;;;2.20;;
5730;SDS011;2890;51.950;7.668;2023-06-14T14:36:04;4.40;;;2.30;;
5730;SDS011;2890;51.950;7.668;2023-06-14T14:38:31;2.40;;;2.20;;
5730;SDS011;2890;51.950;7.668;2023-06-14T14:40:58;2.37;;;2.17;;
5730;SDS011;2890;51.950;7.668;2023-06-14T14:43:25;5.57;;;2.30;;
5730;SDS011;2890;51.950;7.668;2023-06-14T14:45:53;2.60;;;2.40;;
5730;SDS011;2890;51.950;7.668;2023-06-14T14:48:20;2.60;;;2.40;;
5730;SDS011;2890;51.950;7.668;2023-06-14T14:50:46;2.30;;;2.10;;
5730;SDS011;2890;51.950;7.668;2023-06-14T14:53:13;2.73;;;2.53;;
5730;SDS011;2890;51.950;7.668;2023-06-14T14:55:41;2.20;;;2.00;;
5730;SDS011;2890;51.950;7.668;2023-06-14T14:58:08;3.50;;;2.70;;
5730;SDS011;2890;51.950;7.668;2023-06-14T15:00:34;2.23;;;2.03;;
5730;SDS011;2890;51.950;7.668;2023-06-14T15:03:02;2.93;;;2.40;;
5730;SDS011;2890;51.950;7.668;2023-06-14T15:05:29;5.23;;;2.80;;
5730;SDS011;2890;51.950;7.668;2023-06-14T15:07:55;2.77;;;2.57;;
5730;SDS011;2890;51.950;7.668;2023-06-14T15:10:22;5.60;;;3.90;;
5730;SDS011;2890;51.950;7.668;2023-06-14T15:12:50;3.13;;;2.90;;
5730;SDS011;2890;51.950;7.668;2023-06-14T15:15:16;3.43;;;2.40;;
5730;SDS011;2890;51.950;7.668;2023-06-14T15:17:43;5.20;;;2.50;;
5730;SDS011;2890;51.950;7.668;2023-06-14T15:20:11;7.23;;;3.00;;
5730;SDS011;2890;51.950;7.668;2023-06-14T15:22:39;2.57;;;2.37;;